Time;durP1;ratioP1;P1;durP2;ratioP2;P2;SDS_P1;SDS_P2;PMS_P1;PMS_P2;Temp;Humidity;BMP_temperature;BMP_pressure;BME280_temperature;BME280_humidity;BME280_pressure;Samples;Min_cycle;Max_cycle;Signal;HPM_P1;HPM_P2
2021/09/13 00:00:25;;;;;;;7.57;4.60;;;;;;;12.68;100.00;101853.03;10504771;28;20078;-55
2021/09/13 00:05:27;;;;;;;6.10;4.15;;;;;;;12.74;100.00;101847.50;10504673;28;20063;-57
2021/09/13 00:10:29;;;;;;;11.43;5.30;;;;;;;12.66;100.00;101846.16;10504629;28;20040;-56
2021/09/13 00:15:32;;;;;;;6.05;4.72;;;;;;;12.65;100.00;101847.94;10504985;28;20044;-52
2021/09/13 00:20:34;;;;;;;11.82;4.88;;;;;;;12.58;100.00;101843.91;10504058;28;20072;-55
2021/09/13 00:25:37;;;;;;;7.15;4.90;;;;;;;12.55;100.00;101839.66;10504031;28;20060;-57
2021/09/13 00:30:39;;;;;;;4.80;4.22;;;;;;;12.53;100.00;101838.88;10503660;28;20049;-53
2021/09/13 00:35:41;;;;;;;8.60;4.75;;;;;;;12.45;100.00;101841.03;10503661;28;20059;-54
2021/09/13 00:40:44;;;;;;;7.75;4.97;;;;;;;12.44;100.00;101836.72;10503489;28;20051;-56
2021/09/13 00:45:46;;;;;;;7.80;4.10;;;;;;;12.35;100.00;101840.63;10503242;28;20503;-55
2021/09/13 00:50:49;;;;;;;7.93;4.22;;;;;;;12.38;100.00;101839.63;10502993;28;20045;-55
2021/09/13 00:55:54;;;;;;;8.65;3.97;;;;;;;12.27;100.00;101835.75;10501572;28;20408;-56
2021/09/13 01:00:57;;;;;;;9.13;4.20;;;;;;;12.34;100.00;101831.06;10503075;28;20049;-53
2021/09/13 01:05:59;;;;;;;6.65;3.65;;;;;;;12.25;100.00;101831.50;10502354;28;20080;-53
2021/09/13 01:11:02;;;;;;;5.03;4.22;;;;;;;12.21;100.00;101830.78;10502240;28;20492;-54
2021/09/13 01:16:05;;;;;;;6.72;4.30;;;;;;;12.20;100.00;101829.06;10501203;28;20521;-53
2021/09/13 01:21:07;;;;;;;9.70;4.35;;;;;;;12.19;100.00;101829.19;10502113;28;20057;-54
2021/09/13 01:26:10;;;;;;;6.72;4.47;;;;;;;12.16;100.00;101827.53;10501504;28;20052;-55
2021/09/13 01:31:12;;;;;;;8.95;4.50;;;;;;;12.19;100.00;101818.69;10501330;28;20476;-54
2021/09/13 01:36:15;;;;;;;7.85;5.07;;;;;;;12.06;100.00;101827.09;10501558;28;20052;-50
2021/09/13 01:41:17;;;;;;;8.80;5.70;;;;;;;12.05;100.00;101830.69;10500860;28;20515;-54
2021/09/13 01:46:19;;;;;;;8.88;5.03;;;;;;;12.11;100.00;101833.94;10500744;28;20489;-56
2021/09/13 01:51:22;;;;;;;8.55;5.20;;;;;;;12.01;100.00;101834.34;10499628;28;20056;-54
2021/09/13 01:56:24;;;;;;;7.22;5.00;;;;;;;12.01;100.00;101830.88;10500241;28;20044;-57
2021/09/13 02:01:27;;;;;;;10.38;5.50;;;;;;;12.07;100.00;101825.34;10498917;28;20052;-51
2021/09/13 02:06:31;;;;;;;9.50;4.93;;;;;;;11.90;100.00;101831.34;10499868;28;20045;-50
2021/09/13 02:11:33;;;;;;;7.10;5.90;;;;;;;11.94;100.00;101832.94;10498544;28;20044;-54
2021/09/13 02:16:35;;;;;;;10.63;7.03;;;;;;;11.81;100.00;101832.63;10498623;28;20374;-55
2021/09/13 02:21:38;;;;;;;8.15;6.15;;;;;;;11.92;100.00;101836.56;10499512;28;20139;-56
2021/09/13 02:26:40;;;;;;;12.15;6.80;;;;;;;11.83;100.00;101828.16;10499275;28;20062;-54
2021/09/13 02:31:43;;;;;;;9.25;6.47;;;;;;;11.78;100.00;101824.88;10499097;28;20045;-55
2021/09/13 02:36:45;;;;;;;9.98;7.22;;;;;;;11.72;100.00;101833.06;10498665;28;20044;-56
2021/09/13 02:41:47;;;;;;;10.70;5.90;;;;;;;11.70;100.00;101816.50;10498908;28;20052;-54
2021/09/13 02:46:50;;;;;;;9.82;5.38;;;;;;;11.75;100.00;101824.19;10499131;28;20053;-55
2021/09/13 02:51:52;;;;;;;7.55;5.93;;;;;;;11.71;100.00;101818.22;10498556;28;20052;-55
2021/09/13 02:56:54;;;;;;;8.73;5.95;;;;;;;11.66;100.00;101817.59;10498400;28;20052;-55
2021/09/13 03:01:56;;;;;;;9.13;4.93;;;;;;;11.72;100.00;101812.06;10498273;28;20056;-49
2021/09/13 03:06:59;;;;;;;7.15;4.85;;;;;;;11.64;100.00;101809.78;10498564;28;20056;-50
2021/09/13 03:12:04;;;;;;;5.78;4.82;;;;;;;11.61;100.00;101809.91;10497944;28;20050;-53
2021/09/13 03:17:06;;;;;;;8.13;4.13;;;;;;;11.60;100.00;101815.22;10497786;28;20476;-53
2021/09/13 03:22:08;;;;;;;5.65;4.45;;;;;;;11.60;100.00;101808.25;10496684;28;20097;-54
2021/09/13 03:27:11;;;;;;;7.07;4.07;;;;;;;11.63;100.00;101809.84;10498320;28;20052;-54
2021/09/13 03:32:13;;;;;;;7.80;4.45;;;;;;;11.67;100.00;101799.16;10506700;28;20049;-53
2021/09/13 03:37:15;;;;;;;5.55;3.35;;;;;;;11.66;100.00;101804.47;10505972;28;20052;-53
2021/09/13 03:42:18;;;;;;;7.97;4.10;;;;;;;11.61;100.00;101804.69;10506409;28;20048;-53
2021/09/13 03:47:20;;;;;;;6.03;3.78;;;;;;;11.62;100.00;101801.16;10505806;28;20057;-53
2021/09/13 03:52:22;;;;;;;9.95;4.13;;;;;;;11.54;100.00;101808.50;10505675;28;20040;-55
2021/09/13 03:57:24;;;;;;;6.10;4.00;;;;;;;11.54;100.00;101808.50;10505381;28;20051;-52
2021/09/13 04:02:27;;;;;;;7.03;3.42;;;;;;;11.55;100.00;101809.34;10504957;28;20048;-52
2021/09/13 04:07:38;;;;;;;4.35;3.55;;;;;;;11.51;100.00;101804.22;10505250;28;20044;-51
2021/09/13 04:12:40;;;;;;;6.78;3.22;;;;;;;11.54;100.00;101800.63;10505141;28;20052;-52
2021/09/13 04:17:43;;;;;;;3.58;3.28;;;;;;;11.46;100.00;101798.34;10504610;28;20047;-52
2021/09/13 04:22:45;;;;;;;6.35;3.30;;;;;;;11.43;100.00;101803.75;10504295;28;20049;-53
2021/09/13 04:27:47;;;;;;;5.63;2.65;;;;;;;11.49;100.00;101800.00;10502850;28;20052;-55
2021/09/13 04:32:50;;;;;;;5.30;3.33;;;;;;;11.46;100.00;101795.72;10504227;28;20052;-51
2021/09/13 04:37:52;;;;;;;4.95;3.70;;;;;;;11.45;100.00;101790.59;10502749;28;20052;-53
2021/09/13 04:42:55;;;;;;;8.02;3.33;;;;;;;11.34;100.00;101807.63;10504329;28;20052;-52
2021/09/13 04:47:57;;;;;;;6.45;2.97;;;;;;;11.45;100.00;101796.66;10503295;28;20056;-54
2021/09/13 04:53:00;;;;;;;5.03;2.80;;;;;;;11.30;100.00;101802.59;10503223;28;20045;-57
2021/09/13 04:58:02;;;;;;;10.02;2.58;;;;;;;11.44;100.00;101807.22;10502560;28;20051;-55
2021/09/13 05:03:05;;;;;;;3.47;2.40;;;;;;;11.28;100.00;101810.53;10503308;28;20049;-55
2021/09/13 05:08:07;;;;;;;6.00;2.70;;;;;;;11.35;100.00;101813.72;10501179;28;20110;-53
2021/09/13 05:13:10;;;;;;;6.50;2.60;;;;;;;11.37;100.00;101825.00;10502440;28;20041;-54
2021/09/13 05:18:12;;;;;;;4.45;2.78;;;;;;;11.29;100.00;101816.63;10502092;28;20056;-53
2021/09/13 05:23:14;;;;;;;5.93;3.00;;;;;;;11.20;100.00;101830.97;10501843;28;20400;-55
2021/09/13 05:28:17;;;;;;;9.38;3.97;;;;;;;11.25;100.00;101833.41;10502300;28;20056;-54
2021/09/13 05:33:19;;;;;;;5.75;2.28;;;;;;;11.40;100.00;101837.09;10501747;28;20048;-52
2021/09/13 05:38:21;;;;;;;7.18;3.42;;;;;;;11.41;100.00;101837.03;10501170;28;20040;-55
2021/09/13 05:43:24;;;;;;;8.93;3.15;;;;;;;11.55;100.00;101838.19;10501253;28;20400;-51
2021/09/13 05:48:26;;;;;;;3.72;2.75;;;;;;;11.63;100.00;101833.47;10500762;28;20056;-54
2021/09/13 05:53:28;;;;;;;4.45;2.80;;;;;;;11.77;100.00;101835.44;10499715;28;20504;-54
2021/09/13 05:58:31;;;;;;;3.47;2.85;;;;;;;11.83;100.00;101843.88;10500125;28;20041;-54
2021/09/13 06:03:33;;;;;;;5.82;3.42;;;;;;;11.92;100.00;101836.56;10500277;28;20048;-54
2021/09/13 06:08:36;;;;;;;5.43;2.85;;;;;;;12.05;100.00;101843.81;10499819;28;20074;-56
2021/09/13 06:13:40;;;;;;;7.18;3.45;;;;;;;12.15;100.00;101849.44;10499786;28;20531;-54
2021/09/13 06:18:42;;;;;;;7.38;4.10;;;;;;;12.11;100.00;101855.78;10499456;28;20062;-56
2021/09/13 06:23:45;;;;;;;5.55;3.70;;;;;;;12.18;100.00;101849.31;10499703;28;20048;-54
2021/09/13 06:28:47;;;;;;;7.65;4.00;;;;;;;12.25;100.00;101850.75;10499191;28;20053;-55
2021/09/13 06:33:50;;;;;;;8.20;3.90;;;;;;;12.41;100.00;101861.34;10499031;28;20397;-56
2021/09/13 06:38:52;;;;;;;8.88;4.03;;;;;;;12.39;100.00;101865.81;10499045;28;20382;-53
2021/09/13 06:43:54;;;;;;;6.00;3.70;;;;;;;12.70;100.00;101874.00;10498843;28;20051;-55
2021/09/13 06:48:56;;;;;;;7.45;4.43;;;;;;;12.78;100.00;101870.06;10498516;28;20064;-56
2021/09/13 06:53:59;;;;;;;7.03;3.60;;;;;;;12.95;100.00;101868.38;10499254;28;20045;-54
2021/09/13 06:59:02;;;;;;;7.15;4.20;;;;;;;13.31;100.00;101864.78;10498223;28;20045;-56
2021/09/13 07:04:05;;;;;;;8.30;5.60;;;;;;;13.65;100.00;101861.25;10497959;28;20408;-56
2021/09/13 07:09:07;;;;;;;5.60;4.50;;;;;;;13.81;100.00;101860.44;10498041;28;20049;-53
2021/09/13 07:14:09;;;;;;;8.52;3.55;;;;;;;14.13;100.00;101867.41;10498562;28;20048;-56
2021/09/13 07:19:12;;;;;;;6.18;5.57;;;;;;;14.33;100.00;101868.09;10498113;28;20052;-56
2021/09/13 07:24:16;;;;;;;11.05;6.68;;;;;;;14.45;100.00;101877.09;10497871;28;20063;-56
2021/09/13 07:29:18;;;;;;;12.77;6.25;;;;;;;14.69;100.00;101872.22;10497591;28;20052;-55
2021/09/13 07:34:20;;;;;;;10.30;7.55;;;;;;;15.33;100.00;101877.28;10497795;28;20051;-53
2021/09/13 07:39:28;;;;;;;14.35;9.90;;;;;;;16.52;100.00;101881.31;10496303;28;20049;-55
2021/09/13 07:44:30;;;;;;;13.43;10.45;;;;;;;16.91;97.02;101879.63;10497736;28;20055;-57
2021/09/13 07:49:33;;;;;;;18.15;15.05;;;;;;;16.68;100.00;101889.09;10497160;28;20072;-58
2021/09/13 07:54:35;;;;;;;19.65;13.68;;;;;;;16.80;100.00;101882.97;10497251;28;20072;-57
2021/09/13 07:59:38;;;;;;;15.13;9.02;;;;;;;17.63;99.89;101890.59;10495898;28;20041;-54
2021/09/13 08:04:41;;;;;;;16.23;11.57;;;;;;;17.83;99.81;101897.13;10497480;28;20044;-58
2021/09/13 08:09:43;;;;;;;17.67;9.32;;;;;;;18.34;95.43;101893.53;10496855;28;20059;-54
2021/09/13 08:14:45;;;;;;;16.08;10.13;;;;;;;18.29;96.66;101900.09;10500530;28;20051;-56
2021/09/13 08:19:48;;;;;;;13.23;9.88;;;;;;;17.74;96.35;101900.44;10505020;28;20068;-56
2021/09/13 08:24:51;;;;;;;11.70;9.30;;;;;;;18.69;96.42;101913.09;10504165;28;20052;-57
2021/09/13 08:29:53;;;;;;;11.15;7.25;;;;;;;19.22;91.89;101921.50;10503726;28;20518;-58
2021/09/13 08:34:56;;;;;;;13.77;6.32;;;;;;;17.82;96.04;101935.19;10503724;28;20381;-56
2021/09/13 08:39:59;;;;;;;10.50;6.03;;;;;;;18.44;94.79;101937.91;10503115;28;20516;-56
2021/09/13 08:45:08;;;;;;;13.88;6.22;;;;;;;19.08;90.42;101935.84;10503965;28;20074;-52
2021/09/13 08:50:25;;;;;;;9.40;5.28;;;;;;;19.31;87.72;101935.88;10503257;28;20051;-56
2021/09/13 08:55:28;;;;;;;8.90;4.43;;;;;;;21.18;88.61;101929.81;10503273;28;20049;-55
2021/09/13 09:00:30;;;;;;;8.13;3.85;;;;;;;20.32;85.55;101916.47;10502633;28;20404;-53
2021/09/13 09:05:53;;;;;;;6.97;4.03;;;;;;;18.94;87.70;101926.25;10501761;28;20094;-57
2021/09/13 09:11:02;;;;;;;6.00;2.80;;;;;;;21.54;81.44;101924.19;10502810;28;20523;-54
2021/09/13 09:16:05;;;;;;;9.38;3.75;;;;;;;21.03;77.95;101921.31;10502902;28;20052;-54
2021/09/13 09:21:12;;;;;;;5.57;3.08;;;;;;;20.44;80.11;101922.59;10502117;28;20052;-53
2021/09/13 09:26:15;;;;;;;6.20;1.85;;;;;;;20.47;82.84;101929.50;10501695;28;20413;-55
2021/09/13 09:31:36;;;;;;;3.70;1.27;;;;;;;21.41;75.91;101935.00;10501812;28;20049;-55
2021/09/13 09:36:38;;;;;;;4.30;1.30;;;;;;;21.63;72.53;101924.22;10501407;28;20049;-55
2021/09/13 09:41:44;;;;;;;3.88;2.22;;;;;;;22.08;73.62;101922.97;10499936;28;20412;-54
2021/09/13 09:46:47;;;;;;;3.42;1.50;;;;;;;21.67;71.17;101922.97;10500820;28;20489;-59
2021/09/13 09:51:54;;;;;;;2.25;1.13;;;;;;;22.25;73.65;101916.97;10500469;28;20047;-57
2021/09/13 09:57:05;;;;;;;1.65;1.00;;;;;;;20.84;66.74;101922.00;10500319;28;20045;-57
2021/09/13 10:02:20;;;;;;;3.10;1.25;;;;;;;21.99;70.61;101916.66;10500599;28;20053;-55
2021/09/13 10:07:23;;;;;;;2.92;1.10;;;;;;;21.11;71.05;101918.84;10500637;28;20131;-57
2021/09/13 10:12:25;;;;;;;2.28;1.00;;;;;;;21.30;69.25;101909.28;10500099;28;20040;-56
2021/09/13 10:17:28;;;;;;;2.47;0.80;;;;;;;21.29;66.80;101907.59;10498461;28;20053;-56
2021/09/13 10:22:39;;;;;;;3.45;1.20;;;;;;;21.46;67.70;101904.31;10499625;28;20444;-57
2021/09/13 10:27:46;;;;;;;2.25;1.35;;;;;;;21.48;70.50;101901.56;10499163;28;20055;-57
2021/09/13 10:32:52;;;;;;;3.60;1.48;;;;;;;20.20;71.18;101905.00;10498498;28;20052;-56
2021/09/13 10:37:55;;;;;;;7.90;1.48;;;;;;;21.08;76.43;101894.28;10498119;28;20052;-56
2021/09/13 10:42:59;;;;;;;6.22;1.60;;;;;;;22.68;69.96;101888.28;10498551;28;20499;-55
2021/09/13 10:48:04;;;;;;;5.32;1.63;;;;;;;21.07;67.80;101888.13;10498522;28;20488;-55
2021/09/13 10:53:29;;;;;;;8.57;1.88;;;;;;;20.91;69.65;101888.59;10498437;28;20484;-57
2021/09/13 10:58:31;;;;;;;2.33;1.70;;;;;;;20.46;70.70;101883.44;10488360;28;20066;-56
2021/09/13 11:03:36;;;;;;;6.47;3.13;;;;;;;20.53;73.70;101881.13;10498363;28;20044;-55
2021/09/13 11:08:59;;;;;;;2.97;1.80;;;;;;;20.07;77.14;101868.91;10498858;28;20052;-57
2021/09/13 11:14:02;;;;;;;5.38;1.73;;;;;;;20.42;76.44;101871.34;10498827;28;20041;-57
2021/09/13 11:19:10;;;;;;;5.32;2.25;;;;;;;21.33;70.75;101867.25;10498177;28;20060;-55
2021/09/13 11:24:16;;;;;;;6.38;2.80;;;;;;;22.27;63.66;101860.81;10497952;28;20048;-57
2021/09/13 11:29:29;;;;;;;2.85;1.60;;;;;;;22.46;63.76;101854.72;10497576;28;20066;-58
2021/09/13 11:34:50;;;;;;;1.63;1.48;;;;;;;23.72;64.00;101845.53;10497716;28;20044;-56
2021/09/13 11:40:00;;;;;;;;;;;;;;;22.59;57.93;101841.06;10497778;28;20051;-52
2021/09/13 11:45:08;;;;;;;4.57;2.25;;;;;;;23.36;59.28;101836.56;10497784;28;19928;-57
2021/09/13 11:50:26;;;;;;;4.28;2.00;;;;;;;24.05;64.52;101839.72;10502107;28;20056;-57
2021/09/13 11:55:29;;;;;;;3.38;2.65;;;;;;;23.65;61.41;101838.25;10505923;28;20052;-56
2021/09/13 12:00:35;;;;;;;5.68;2.33;;;;;;;22.74;61.21;101841.47;10505128;28;20102;-55
2021/09/13 12:05:43;;;;;;;3.50;2.08;;;;;;;22.25;63.40;101828.13;10504927;28;20401;-55
2021/09/13 12:10:46;;;;;;;7.10;2.80;;;;;;;23.26;65.57;101831.25;10504422;28;20049;-56
2021/09/13 12:15:51;;;;;;;3.85;2.33;;;;;;;22.50;63.75;101823.25;10503327;28;20123;-56
2021/09/13 12:20:53;;;;;;;6.38;2.47;;;;;;;21.84;66.58;101822.03;10503463;28;20124;-56
2021/09/13 12:26:02;;;;;;;3.58;2.40;;;;;;;21.79;62.39;101818.94;10504379;28;20052;-57
2021/09/13 12:31:07;;;;;;;6.22;2.70;;;;;;;23.56;62.49;101821.28;10503942;28;20084;-56
2021/09/13 12:36:19;;;;;;;6.20;2.92;;;;;;;25.49;55.93;101810.00;10503951;28;20056;-56
2021/09/13 12:41:42;;;;;;;4.70;2.65;;;;;;;22.59;64.89;101803.69;10503662;28;20045;-58
2021/09/13 12:46:46;;;;;;;4.43;3.00;;;;;;;21.13;66.83;101813.06;10503585;28;20052;-49
2021/09/13 12:52:02;;;;;;;6.82;2.65;;;;;;;20.65;66.93;101813.59;10503588;28;20051;-51
2021/09/13 12:57:06;;;;;;;4.05;1.95;;;;;;;20.77;69.79;101815.22;10503152;28;20049;-51
2021/09/13 13:02:13;;;;;;;5.13;2.28;;;;;;;21.04;69.71;101808.50;10502143;28;20044;-52
2021/09/13 13:07:18;;;;;;;3.63;2.25;;;;;;;21.05;69.78;101793.41;10502673;28;20390;-56
2021/09/13 13:12:22;;;;;;;6.85;1.83;;;;;;;21.51;68.55;101774.25;10502541;28;20080;-54
2021/09/13 13:17:30;;;;;;;2.38;1.40;;;;;;;21.55;67.17;101776.66;10502174;28;20044;-55
2021/09/13 13:22:33;;;;;;;3.03;1.52;;;;;;;21.87;64.34;101766.63;10502332;28;20059;-55
2021/09/13 13:27:36;;;;;;;3.22;1.70;;;;;;;20.95;67.67;101764.91;10502368;28;20053;-54
2021/09/13 13:32:39;;;;;;;5.57;1.50;;;;;;;21.81;67.48;101761.84;10501533;28;20056;-50
2021/09/13 13:37:42;;;;;;;4.95;1.30;;;;;;;21.87;63.68;101753.28;10501373;28;20049;-52
2021/09/13 13:42:44;;;;;;;2.47;0.73;;;;;;;22.18;63.46;101755.00;10500097;28;20048;-54
2021/09/13 13:47:47;;;;;;;1.88;1.40;;;;;;;22.53;62.03;101754.41;10500960;28;20053;-49
2021/09/13 13:52:49;;;;;;;2.22;1.17;;;;;;;23.33;61.63;101754.00;10500687;28;20484;-54
2021/09/13 13:57:52;;;;;;;2.10;1.35;;;;;;;22.38;62.16;101750.50;10500245;28;20052;-55
2021/09/13 14:02:54;;;;;;;2.50;1.20;;;;;;;21.71;63.86;101748.50;10500240;28;20412;-52
2021/09/13 14:08:00;;;;;;;4.30;1.30;;;;;;;23.59;58.08;101746.13;10500188;28;20055;-55
2021/09/13 14:13:02;;;;;;;2.58;1.20;;;;;;;23.19;60.12;101742.00;10499778;28;20106;-50
2021/09/13 14:18:05;;;;;;;2.97;1.38;;;;;;;23.81;56.62;101741.34;10500049;28;20045;-52
2021/09/13 14:23:07;;;;;;;2.05;1.40;;;;;;;22.29;62.54;101730.00;10499673;28;20053;-52
2021/09/13 14:28:10;;;;;;;3.80;1.80;;;;;;;21.85;63.83;101739.25;10499711;28;20044;-51
2021/09/13 14:33:12;;;;;;;2.33;1.40;;;;;;;23.66;57.88;101738.34;10498031;28;20041;-53
2021/09/13 14:38:14;;;;;;;4.80;1.77;;;;;;;22.26;56.74;101731.13;10499617;28;20062;-53
2021/09/13 14:43:17;;;;;;;2.78;1.60;;;;;;;22.30;61.13;101721.88;10499167;28;20049;-49
2021/09/13 14:48:20;;;;;;;4.10;1.77;;;;;;;22.85;63.17;101714.97;10498566;28;20092;-54
2021/09/13 14:53:22;;;;;;;4.30;1.50;;;;;;;21.82;63.15;101718.22;10498555;28;20484;-54
2021/09/13 14:58:24;;;;;;;2.95;1.33;;;;;;;21.86;64.26;101718.78;10498365;28;20503;-53
2021/09/13 15:03:26;;;;;;;3.78;1.63;;;;;;;22.00;65.26;101723.69;10498456;28;20052;-57
2021/09/13 15:08:29;;;;;;;2.70;1.00;;;;;;;22.65;63.02;101727.56;10498344;28;20055;-52
2021/09/13 15:13:32;;;;;;;3.28;1.50;;;;;;;22.17;64.34;101715.94;10499164;28;20044;-52
2021/09/13 15:18:34;;;;;;;4.28;1.42;;;;;;;22.16;65.32;101714.28;10497917;28;20052;-53
2021/09/13 15:23:37;;;;;;;4.25;1.45;;;;;;;21.52;65.31;101711.16;10503459;28;20055;-54
2021/09/13 15:28:39;;;;;;;3.78;2.08;;;;;;;21.83;66.45;101706.56;10512101;28;20071;-52
2021/09/13 15:33:42;;;;;;;6.53;2.15;;;;;;;20.84;68.19;101703.75;10511719;28;20047;-50
2021/09/13 15:38:47;;;;;;;6.25;1.70;;;;;;;20.90;68.08;101708.56;10510943;28;20535;-54
2021/09/13 15:43:49;;;;;;;2.25;1.30;;;;;;;20.70;73.81;101706.78;10511023;28;20408;-55
2021/09/13 15:48:52;;;;;;;3.67;1.75;;;;;;;20.75;73.26;101699.25;10511114;28;20051;-51
2021/09/13 15:53:54;;;;;;;4.35;1.40;;;;;;;20.34;74.80;101696.47;10511418;28;20048;-50
2021/09/13 15:58:57;;;;;;;2.47;1.30;;;;;;;20.32;76.69;101701.06;10510902;28;20048;-50
2021/09/13 16:03:59;;;;;;;3.55;1.63;;;;;;;20.24;75.64;101690.25;10510816;28;20059;-52
2021/09/13 16:09:03;;;;;;;3.85;2.08;;;;;;;20.00;73.69;101679.84;10510700;28;20044;-53
2021/09/13 16:14:05;;;;;;;2.53;1.73;;;;;;;19.79;76.08;101672.69;10509359;28;20514;-50
2021/09/13 16:19:07;;;;;;;2.15;1.85;;;;;;;20.05;75.12;101677.66;10510518;28;20060;-54
2021/09/13 16:24:10;;;;;;;3.03;1.80;;;;;;;19.91;74.67;101676.16;10510641;28;20059;-56
2021/09/13 16:29:12;;;;;;;2.03;1.67;;;;;;;19.85;76.94;101666.03;10510609;28;20049;-52
2021/09/13 16:34:15;;;;;;;3.47;1.50;;;;;;;19.62;78.54;101670.56;10508169;28;20044;-52
2021/09/13 16:39:17;;;;;;;4.45;1.48;;;;;;;19.86;78.41;101678.34;10503576;28;20497;-51
2021/09/13 16:44:19;;;;;;;4.97;1.40;;;;;;;19.26;83.24;101675.22;10503856;28;20438;-57
2021/09/13 16:49:22;;;;;;;4.82;1.52;;;;;;;19.09;86.39;101671.28;10503043;28;20049;-54
2021/09/13 16:54:24;;;;;;;8.35;1.90;;;;;;;19.01;86.62;101674.53;10503390;28;20040;-50
2021/09/13 16:59:27;;;;;;;4.03;1.48;;;;;;;18.57;90.34;101686.78;10502902;28;20068;-55
2021/09/13 17:04:29;;;;;;;4.40;1.50;;;;;;;18.54;91.00;101679.94;10503104;28;20137;-54
2021/09/13 17:09:32;;;;;;;3.08;1.50;;;;;;;18.26;93.16;101675.88;10502296;28;20416;-55
2021/09/13 17:14:34;;;;;;;6.60;3.63;;;;;;;18.15;93.95;101679.34;10501775;28;20044;-51
2021/09/13 17:19:36;;;;;;;4.80;2.13;;;;;;;17.91;96.34;101671.44;10502668;28;20060;-53
2021/09/13 17:24:43;;;;;;;3.47;1.60;;;;;;;17.68;98.89;101677.56;10502392;28;20090;-54
2021/09/13 17:29:45;;;;;;;5.32;1.98;;;;;;;17.54;100.00;101679.41;10500828;28;20048;-52
2021/09/13 17:34:48;;;;;;;3.10;1.30;;;;;;;17.41;100.00;101678.63;10501693;28;20045;-53
2021/09/13 17:39:50;;;;;;;3.03;1.60;;;;;;;17.20;100.00;101670.44;10501420;28;20049;-52
2021/09/13 17:44:52;;;;;;;5.47;2.53;;;;;;;17.11;100.00;101677.22;10501158;28;20050;-55
2021/09/13 17:49:55;;;;;;;4.93;2.08;;;;;;;16.79;100.00;101669.72;10499624;28;20044;-54
2021/09/13 17:54:57;;;;;;;5.38;2.40;;;;;;;16.61;100.00;101666.56;10500733;28;20040;-53
2021/09/13 18:00:03;;;;;;;6.10;2.38;;;;;;;16.46;100.00;101673.75;10500276;28;20052;-51
2021/09/13 18:05:06;;;;;;;5.70;2.58;;;;;;;16.26;100.00;101679.56;10500608;28;20045;-53
2021/09/13 18:10:09;;;;;;;6.47;2.40;;;;;;;16.21;100.00;101673.72;10500697;28;20056;-53
2021/09/13 18:15:11;;;;;;;2.67;2.08;;;;;;;15.97;100.00;101683.19;10500542;28;20048;-52
2021/09/13 18:20:14;;;;;;;3.47;2.10;;;;;;;15.88;100.00;101681.13;10499671;28;20052;-55
2021/09/13 18:25:16;;;;;;;4.30;2.55;;;;;;;15.76;100.00;101674.88;10499806;28;20071;-53
2021/09/13 18:30:18;;;;;;;3.67;2.38;;;;;;;15.76;100.00;101676.66;10499313;28;20519;-53
2021/09/13 18:35:21;;;;;;;3.83;2.70;;;;;;;15.37;100.00;101667.72;10499131;28;20055;-54
2021/09/13 18:40:23;;;;;;;4.70;2.58;;;;;;;15.50;100.00;101673.91;10499023;28;20041;-56
2021/09/13 18:45:26;;;;;;;3.03;2.75;;;;;;;15.22;100.00;101673.00;10498929;28;20045;-54
2021/09/13 18:50:28;;;;;;;6.07;2.35;;;;;;;15.30;100.00;101676.94;10498664;28;20056;-52
2021/09/13 18:55:31;;;;;;;2.55;2.35;;;;;;;15.26;100.00;101675.47;10498662;28;20052;-51
2021/09/13 19:00:33;;;;;;;5.13;3.22;;;;;;;15.18;100.00;101683.84;10496959;28;20048;-56
2021/09/13 19:05:36;;;;;;;3.85;2.70;;;;;;;14.98;100.00;101695.66;10498160;28;20484;-53
2021/09/13 19:10:38;;;;;;;4.22;2.40;;;;;;;15.01;100.00;101691.03;10498322;28;20052;-52
2021/09/13 19:15:42;;;;;;;3.30;2.97;;;;;;;14.95;100.00;101690.56;10497956;28;20413;-54
2021/09/13 19:20:44;;;;;;;3.38;2.53;;;;;;;14.86;100.00;101689.31;10497514;28;20410;-51
2021/09/13 19:25:47;;;;;;;4.00;2.65;;;;;;;15.01;100.00;101692.81;10498195;28;20049;-56
2021/09/13 19:30:50;;;;;;;4.15;2.83;;;;;;;14.91;100.00;101694.31;10497741;28;20485;-57
2021/09/13 19:35:53;;;;;;;3.65;2.85;;;;;;;14.86;100.00;101699.88;10497520;28;20045;-51
2021/09/13 19:40:55;;;;;;;7.45;4.00;;;;;;;14.73;100.00;101704.22;10497494;28;20086;-52
2021/09/13 19:45:57;;;;;;;6.22;3.88;;;;;;;14.79;100.00;101703.81;10497424;28;20052;-51
2021/09/13 19:51:02;;;;;;;5.47;3.53;;;;;;;14.74;100.00;101700.63;10497292;28;20088;-55
2021/09/13 19:56:09;;;;;;;7.72;4.60;;;;;;;14.74;100.00;101693.56;10497526;28;20400;-53
2021/09/13 20:01:12;;;;;;;8.10;4.70;;;;;;;14.58;100.00;101692.78;10497399;28;20050;-52
2021/09/13 20:06:15;;;;;;;5.35;3.95;;;;;;;14.53;100.00;101689.56;10495908;28;20094;-54
2021/09/13 20:11:17;;;;;;;10.73;4.55;;;;;;;14.59;100.00;101699.75;10500639;28;20135;-54
2021/09/13 20:16:20;;;;;;;4.90;4.40;;;;;;;14.29;100.00;101690.09;10505204;28;20044;-52
2021/09/13 20:21:22;;;;;;;10.68;5.53;;;;;;;14.46;100.00;101681.19;10504389;28;20060;-53
2021/09/13 20:26:25;;;;;;;9.27;6.28;;;;;;;14.41;100.00;101683.25;10504729;28;20052;-54
2021/09/13 20:31:27;;;;;;;6.82;4.70;;;;;;;14.41;100.00;101681.44;10503918;28;20488;-52
2021/09/13 20:36:30;;;;;;;9.57;5.45;;;;;;;14.44;100.00;101683.91;10503740;28;20045;-53
2021/09/13 20:41:32;;;;;;;8.45;6.03;;;;;;;14.45;100.00;101682.94;10503561;28;20567;-54
2021/09/13 20:46:35;;;;;;;5.95;5.32;;;;;;;14.30;100.00;101678.59;10504093;28;20061;-52
2021/09/13 20:51:37;;;;;;;9.88;6.30;;;;;;;14.30;100.00;101679.44;10503660;28;20083;-53
2021/09/13 20:56:39;;;;;;;11.38;6.60;;;;;;;14.22;100.00;101680.84;10503206;28;20052;-55
2021/09/13 21:01:42;;;;;;;12.52;7.65;;;;;;;14.16;100.00;101689.13;10502793;28;20055;-55
2021/09/13 21:06:44;;;;;;;13.05;7.78;;;;;;;14.20;100.00;101680.09;10502864;28;20075;-54
2021/09/13 21:11:47;;;;;;;8.70;7.50;;;;;;;14.19;100.00;101670.47;10502386;28;20051;-55
2021/09/13 21:16:50;;;;;;;15.73;8.55;;;;;;;14.24;100.00;101668.41;10502492;28;20052;-53
2021/09/13 21:21:52;;;;;;;12.73;9.40;;;;;;;14.24;100.00;101666.66;10501611;28;20088;-56
2021/09/13 21:26:55;;;;;;;11.95;9.32;;;;;;;14.29;100.00;101661.97;10502968;28;20052;-53
2021/09/13 21:31:57;;;;;;;18.17;10.32;;;;;;;14.30;100.00;101658.38;10501525;28;20122;-55
2021/09/13 21:36:59;;;;;;;12.57;9.18;;;;;;;14.23;100.00;101666.75;10501379;28;20544;-50
2021/09/13 21:42:02;;;;;;;11.93;8.43;;;;;;;14.34;100.00;101660.81;10501380;28;20052;-53
2021/09/13 21:47:04;;;;;;;12.52;8.63;;;;;;;14.12;100.00;101660.31;10500987;28;20059;-50
2021/09/13 21:52:07;;;;;;;12.38;8.40;;;;;;;14.27;100.00;101655.94;10501227;28;20051;-55
2021/09/13 21:57:11;;;;;;;16.98;9.68;;;;;;;14.10;100.00;101650.78;10500707;28;20378;-55
2021/09/13 22:02:14;;;;;;;14.93;8.73;;;;;;;14.04;100.00;101653.81;10500640;28;20051;-57
2021/09/13 22:07:17;;;;;;;10.55;8.25;;;;;;;13.94;100.00;101656.13;10500956;28;20079;-57
2021/09/13 22:12:19;;;;;;;11.45;9.85;;;;;;;14.06;100.00;101654.56;10499990;28;20055;-56
2021/09/13 22:17:21;;;;;;;13.32;9.05;;;;;;;13.96;100.00;101658.66;10499940;28;20574;-54
2021/09/13 22:22:24;;;;;;;14.30;8.90;;;;;;;13.85;100.00;101646.97;10499757;28;20063;-57
2021/09/13 22:27:26;;;;;;;9.57;8.35;;;;;;;13.97;100.00;101641.91;10498276;28;20052;-55
2021/09/13 22:32:28;;;;;;;9.60;8.23;;;;;;;13.73;100.00;101638.00;10497587;28;20044;-56
2021/09/13 22:37:31;;;;;;;14.55;8.43;;;;;;;13.59;100.00;101637.94;10499504;28;20052;-57
2021/09/13 22:42:33;;;;;;;12.07;7.70;;;;;;;13.64;100.00;101630.63;10498904;28;20477;-54
2021/09/13 22:47:36;;;;;;;12.30;8.32;;;;;;;13.80;100.00;101625.34;10499086;28;20075;-57
2021/09/13 22:52:38;;;;;;;14.90;8.95;;;;;;;13.65;100.00;101624.44;10499263;28;20044;-54
2021/09/13 22:57:41;;;;;;;14.57;8.18;;;;;;;13.59;100.00;101631.84;10497373;28;20060;-53
2021/09/13 23:02:43;;;;;;;11.32;7.65;;;;;;;13.61;100.00;101629.94;10498696;28;20045;-55